Time;durP1;ratioP1;P1;durP2;ratioP2;P2;SDS_P1;SDS_P2;PMS_P1;PMS_P2;Temp;Humidity;BMP_temperature;BMP_pressure;BME280_temperature;BME280_humidity;BME280_pressure;Samples;Min_cycle;Max_cycle;Signal;HPM_P1;HPM_P2
2022/01/28 00:01:06;;;;;;;0.20;0.20;;;;;;;0.86;57.23;95906.88;5093915;28;20516;-54
2022/01/28 00:03:39;;;;;;;0.30;0.20;;;;;;;-0.03;58.38;95876.53;5092265;28;20440;-53
2022/01/28 00:06:12;;;;;;;8.50;0.73;;;;;;;-0.28;60.09;95829.22;5091935;28;20452;-53
2022/01/28 00:08:41;;;;;;;0.27;0.20;;;;;;;0.08;58.27;95830.91;5092067;28;20432;-54
2022/01/28 00:11:11;;;;;;;0.20;0.20;;;;;;;0.71;58.17;95887.97;5093223;28;20490;-53
2022/01/28 00:13:42;;;;;;;0.20;0.20;;;;;;;0.98;56.23;95883.66;5092268;28;20475;-53
2022/01/28 00:38:50;;;;;;;0.20;0.20;;;;;;;0.81;56.33;95871.97;5093774;28;20481;-53
2022/01/28 00:41:19;;;;;;;0.20;0.20;;;;;;;0.86;54.60;95839.03;5093350;28;20436;-54
2022/01/28 00:43:47;;;;;;;0.20;0.20;;;;;;;1.12;53.79;95870.44;5093790;28;20460;-53
2022/01/28 00:46:17;;;;;;;0.20;0.20;;;;;;;0.20;56.70;95884.09;5093177;28;20480;-54
2022/01/28 00:49:05;;;;;;;0.20;0.20;;;;;;;0.16;58.88;95872.41;5093203;28;20442;-54
2022/01/28 00:51:36;;;;;;;0.20;0.20;;;;;;;0.26;57.54;95845.03;5092856;28;20428;-54
2022/01/28 00:54:05;;;;;;;0.23;0.20;;;;;;;-0.37;60.74;95869.44;5092159;28;20468;-54
2022/01/28 00:56:34;;;;;;;0.20;0.20;;;;;;;-0.38;61.60;95861.81;5093218;28;20494;-52
2022/01/28 00:59:12;;;;;;;0.20;0.20;;;;;;;-0.20;60.75;95859.53;5093198;28;20936;-52
2022/01/28 01:01:43;;;;;;;0.20;0.20;;;;;;;0.28;57.96;95855.28;5093486;28;20484;-52
2022/01/28 01:04:13;;;;;;;0.20;0.20;;;;;;;0.40;56.73;95851.94;5093311;28;20437;-52
2022/01/28 01:06:41;;;;;;;0.20;0.20;;;;;;;0.38;56.36;95837.47;5092075;28;20473;-53
2022/01/28 01:09:10;;;;;;;0.20;0.20;;;;;;;0.75;55.83;95857.88;5092898;28;20428;-52
2022/01/28 01:11:40;;;;;;;0.20;0.20;;;;;;;0.65;55.77;95854.84;5093086;28;20433;-53
2022/01/28 01:19:41;;;;;;;0.20;0.20;;;;;;;-1.89;62.23;95545.03;5092512;28;20436;-53
2022/01/28 01:22:12;;;;;;;0.30;0.30;;;;;;;0.17;59.87;95814.91;5090939;28;20879;-53
2022/01/28 01:24:50;;;;;;;0.30;0.20;;;;;;;0.41;57.97;95839.66;5089994;28;20812;-54
2022/01/28 01:27:20;;;;;;;0.37;0.37;;;;;;;-0.16;58.38;95775.63;5090292;28;20432;-54
2022/01/28 01:29:49;;;;;;;0.20;0.20;;;;;;;0.24;59.12;95833.16;5090822;28;20429;-53
2022/01/28 01:32:18;;;;;;;0.20;0.20;;;;;;;0.60;60.01;95836.38;5090436;28;20482;-53
2022/01/28 01:34:48;;;;;;;0.30;0.30;;;;;;;0.35;57.24;95783.09;5091165;28;20464;-54
2022/01/28 01:37:16;;;;;;;0.20;0.10;;;;;;;0.47;55.86;95753.66;5091272;28;20441;-53
2022/01/28 01:39:45;;;;;;;0.20;0.20;;;;;;;0.54;55.32;95751.88;5092698;28;20835;-53
2022/01/28 01:42:24;;;;;;;0.20;0.20;;;;;;;0.47;56.21;95810.22;5092708;28;20470;-54
2022/01/28 01:53:24;;;;;;;0.20;0.20;;;;;;;0.89;54.49;95807.34;5090183;28;20459;-53
2022/01/28 01:55:58;;;;;;;0.20;0.20;;;;;;;0.72;54.59;95800.88;5091205;28;20479;-53
2022/01/28 01:58:31;;;;;;;0.20;0.20;;;;;;;0.54;54.43;95769.31;5091375;28;20424;-53
2022/01/28 02:01:02;;;;;;;0.20;0.20;;;;;;;0.79;53.43;95806.09;5092626;28;20911;-53
2022/01/28 02:03:48;;;;;;;0.20;0.20;;;;;;;0.78;53.75;95805.34;5092359;28;20431;-53
2022/01/28 02:06:19;;;;;;;0.20;0.20;;;;;;;0.78;53.93;95801.91;5092080;28;20439;-53
2022/01/28 02:08:48;;;;;;;0.20;0.20;;;;;;;0.73;54.13;95810.34;5092260;28;20508;-53
2022/01/28 02:11:17;;;;;;;0.20;0.13;;;;;;;0.34;54.45;95777.09;5092118;28;20547;-53
2022/01/28 02:13:48;;;;;;;0.20;0.20;;;;;;;0.15;56.50;95808.28;5092350;28;20445;-53
2022/01/28 02:16:18;;;;;;;0.20;0.10;;;;;;;-0.77;57.30;95661.91;5092113;28;20762;-54
2022/01/28 02:18:49;;;;;;;0.23;0.17;;;;;;;-0.14;59.02;95799.69;5092103;28;20428;-53
2022/01/28 02:21:19;;;;;;;0.20;0.20;;;;;;;-1.25;65.32;95800.53;5092025;28;20432;-53
2022/01/28 02:23:53;;;;;;;0.20;0.10;;;;;;;-1.79;72.14;95802.72;5092359;28;20452;-53
2022/01/28 02:26:30;;;;;;;0.30;0.20;;;;;;;-1.82;75.41;95762.31;5092012;28;20975;-53
2022/01/28 02:29:07;;;;;;;0.20;0.20;;;;;;;-1.75;75.12;95739.84;5092324;28;20424;-53
2022/01/28 02:31:36;;;;;;;0.30;0.20;;;;;;;-0.63;69.37;95801.53;5090732;28;20439;-53
2022/01/28 02:34:09;;;;;;;0.20;0.10;;;;;;;-0.62;66.33;95766.69;5090610;28;20614;-53
2022/01/28 02:36:41;;;;;;;0.23;0.20;;;;;;;-0.37;64.42;95780.91;5091866;28;20462;-53
2022/01/28 02:39:11;;;;;;;0.20;0.20;;;;;;;-1.21;64.74;95664.00;5093863;28;20468;-53
2022/01/28 02:41:45;;;;;;;1.70;0.87;;;;;;;-0.58;65.00;95786.16;5093757;28;20485;-53
2022/01/28 02:44:21;;;;;;;0.20;0.20;;;;;;;-0.59;63.55;95797.56;5094787;28;20444;-53
2022/01/28 02:47:12;;;;;;;0.20;0.20;;;;;;;-0.91;66.46;95779.88;5095246;28;20476;-53
2022/01/28 02:49:52;;;;;;;0.20;0.10;;;;;;;-0.58;63.35;95785.38;5095771;28;20467;-53
2022/01/28 02:52:31;;;;;;;0.20;0.20;;;;;;;-0.39;62.85;95782.09;5095774;28;20428;-54
2022/01/28 02:55:10;;;;;;;0.20;0.20;;;;;;;-0.09;60.87;95791.28;5095050;28;21075;-53
2022/01/28 02:58:03;;;;;;;0.60;0.60;;;;;;;-0.24;60.61;95778.38;5095377;28;20996;-53
2022/01/28 03:00:33;;;;;;;0.20;0.20;;;;;;;-0.35;61.13;95780.69;5092757;28;20432;-53
2022/01/28 03:03:02;;;;;;;0.30;0.30;;;;;;;-0.22;60.44;95765.97;5095217;28;20429;-53
2022/01/28 03:05:33;;;;;;;0.20;0.20;;;;;;;-0.13;59.84;95775.22;5093649;28;20439;-53
2022/01/28 03:08:28;;;;;;;0.20;0.10;;;;;;;0.21;58.38;95779.63;5095087;28;20459;-53
2022/01/28 03:11:27;;;;;;;3.43;1.47;;;;;;;-1.00;60.20;95671.72;5094960;28;20948;-53
2022/01/28 03:14:14;;;;;;;0.20;0.20;;;;;;;-0.27;62.42;95777.94;5094931;28;20444;-53
2022/01/28 03:17:06;;;;;;;0.53;0.53;;;;;;;-0.27;60.53;95789.19;5095258;28;20511;-53
2022/01/28 03:19:54;;;;;;;0.30;0.20;;;;;;;-0.91;64.05;95779.88;5092670;28;20475;-53
2022/01/28 03:22:26;;;;;;;0.20;0.10;;;;;;;-0.74;63.73;95802.84;5093217;28;20868;-53
2022/01/28 03:24:58;;;;;;;0.20;0.20;;;;;;;-0.54;62.38;95800.41;5094272;28;20948;-52
2022/01/28 03:27:46;;;;;;;0.20;0.20;;;;;;;-0.49;61.88;95805.03;5093689;28;20420;-53
2022/01/28 03:30:15;;;;;;;0.20;0.20;;;;;;;-0.23;60.17;95815.66;5094652;28;20954;-52
2022/01/28 03:32:43;;;;;;;0.20;0.13;;;;;;;-0.05;59.44;95808.94;5094834;28;20809;-52
2022/01/28 03:35:32;;;;;;;0.30;0.20;;;;;;;-0.29;60.14;95806.81;5094522;28;20471;-52
2022/01/28 03:38:02;;;;;;;0.20;0.20;;;;;;;-1.00;61.40;95739.38;5094550;28;20523;-52
2022/01/28 03:40:36;;;;;;;0.20;0.20;;;;;;;-1.03;63.31;95791.75;5094590;28;20428;-52
2022/01/28 03:43:05;;;;;;;0.60;0.60;;;;;;;-1.06;63.85;95802.56;5093624;28;20998;-52
2022/01/28 03:45:34;;;;;;;0.20;0.20;;;;;;;-1.85;68.75;95726.34;5094593;28;20501;-53
2022/01/28 03:48:03;;;;;;;0.20;0.10;;;;;;;-1.13;67.30;95776.47;5092917;28;20528;-53
2022/01/28 03:50:35;;;;;;;0.20;0.20;;;;;;;-0.80;65.16;95777.56;5094470;28;20436;-53
2022/01/28 03:53:25;;;;;;;0.30;0.30;;;;;;;-0.30;62.39;95773.13;5094339;28;20486;-53
2022/01/28 03:55:57;;;;;;;0.20;0.10;;;;;;;-0.57;62.98;95787.75;5092712;28;20530;-53
2022/01/28 03:58:28;;;;;;;0.27;0.23;;;;;;;-1.13;63.48;95656.03;5094231;28;20461;-53
2022/01/28 04:00:58;;;;;;;0.20;0.10;;;;;;;-1.75;63.27;95594.34;5093038;28;20440;-53
2022/01/28 04:11:58;;;;;;;0.40;0.40;;;;;;;-0.29;59.62;95792.97;5059575;28;20479;-52
2022/01/28 04:14:40;;;;;;;0.20;0.20;;;;;;;-0.93;58.58;95690.78;5092298;28;21097;-53
2022/01/28 04:17:21;;;;;;;0.20;0.13;;;;;;;0.02;57.40;95792.56;5091648;28;20476;-53
2022/01/28 04:19:51;;;;;;;1.03;0.43;;;;;;;-0.02;57.35;95781.72;5093206;28;20458;-53
2022/01/28 04:22:21;;;;;;;0.20;0.10;;;;;;;-1.58;57.99;95548.09;5093954;28;20516;-52
2022/01/28 04:24:50;;;;;;;0.30;0.20;;;;;;;-1.00;60.72;95783.59;5093764;28;20420;-53
2022/01/28 04:27:24;;;;;;;0.20;0.20;;;;;;;-1.91;69.77;95786.78;5093638;28;20456;-52
2022/01/28 04:29:53;;;;;;;0.30;0.30;;;;;;;-2.42;72.00;95733.19;5093982;28;20444;-53
2022/01/28 04:32:25;;;;;;;0.30;0.20;;;;;;;-1.92;73.11;95775.59;5093469;28;20478;-52
2022/01/28 04:34:55;;;;;;;0.20;0.20;;;;;;;-2.11;73.48;95767.56;5093534;28;20424;-52
2022/01/28 04:37:30;;;;;;;0.20;0.20;;;;;;;-2.12;74.34;95771.13;5093232;28;20504;-52
2022/01/28 04:40:08;;;;;;;0.20;0.20;;;;;;;-1.96;72.05;95770.94;5093417;28;20427;-52
2022/01/28 04:42:59;;;;;;;0.40;0.40;;;;;;;-1.93;70.01;95762.78;5093130;28;20484;-52
2022/01/28 04:45:38;;;;;;;0.30;0.30;;;;;;;-2.20;73.49;95756.44;5093619;28;20818;-52
2022/01/28 04:51:09;;;;;;;1.20;1.10;;;;;;;-2.88;77.71;95673.66;5092764;28;20515;-52
2022/01/28 04:54:03;;;;;;;1.53;1.43;;;;;;;-3.24;77.05;95588.00;5091684;28;20937;-52
2022/01/28 04:56:47;;;;;;;0.83;0.50;;;;;;;-2.32;77.27;95741.50;5091127;28;21004;-52
2022/01/28 04:59:35;;;;;;;0.20;0.20;;;;;;;-2.24;77.16;95739.63;5090864;28;20967;-52
2022/01/28 05:07:53;;;;;;;1.10;1.00;;;;;;;-2.54;81.23;95761.38;5091221;28;20487;-53
2022/01/28 05:10:46;;;;;;;0.40;0.40;;;;;;;-2.67;83.88;95774.94;5092657;28;20460;-53
2022/01/28 05:24:58;;;;;;;0.30;0.20;;;;;;;-2.62;79.98;95691.41;5058480;28;20440;-52
2022/01/28 05:27:36;;;;;;;0.20;0.20;;;;;;;-2.13;77.28;95741.78;5092157;28;20490;-53
2022/01/28 05:30:09;;;;;;;0.83;0.83;;;;;;;-1.93;76.92;95762.78;5092208;28;20967;-52
2022/01/28 05:32:39;;;;;;;0.20;0.20;;;;;;;-2.16;78.36;95767.28;5092723;28;20493;-53
2022/01/28 05:35:09;;;;;;;1.17;1.17;;;;;;;-2.82;79.57;95662.59;5092582;28;20424;-52
2022/01/28 05:37:37;;;;;;;1.03;1.03;;;;;;;-2.17;78.75;95769.06;5091867;28;20490;-52
2022/01/28 05:40:08;;;;;;;0.37;0.37;;;;;;;-2.54;78.53;95685.31;5092583;28;20460;-52
2022/01/28 05:42:37;;;;;;;2.20;1.60;;;;;;;-2.35;80.06;95755.63;5092226;28;20420;-53
2022/01/28 05:45:06;;;;;;;5.97;5.53;;;;;;;-2.46;82.51;95755.28;5092493;28;20456;-53
2022/01/28 05:47:36;;;;;;;4.27;3.87;;;;;;;-2.95;82.07;95703.88;5091480;28;20471;-53
2022/01/28 05:50:07;;;;;;;1.87;1.80;;;;;;;-2.63;83.82;95747.66;5091805;28;20420;-53
2022/01/28 05:52:36;;;;;;;2.63;1.43;;;;;;;-2.54;86.47;95752.78;5092232;28;21033;-53
2022/01/28 05:55:06;;;;;;;18.33;3.50;;;;;;;-2.40;83.25;95760.56;5091994;28;20428;-53
2022/01/28 05:57:39;;;;;;;0.40;0.40;;;;;;;-2.74;87.09;95768.06;5091891;28;20483;-53
2022/01/28 06:00:09;;;;;;;2.33;2.23;;;;;;;-2.61;85.12;95765.66;5092336;28;20484;-52
2022/01/28 06:02:37;;;;;;;0.30;0.30;;;;;;;-2.50;83.93;95767.03;5091861;28;20828;-53
2022/01/28 06:05:12;;;;;;;1.97;1.87;;;;;;;-2.53;83.99;95768.19;5091913;28;20429;-53
2022/01/28 06:07:42;;;;;;;0.80;0.80;;;;;;;-2.41;85.19;95763.34;5092123;28;20439;-52
2022/01/28 06:10:18;;;;;;;1.53;1.43;;;;;;;-2.22;81.80;95752.41;5091192;28;20439;-52
2022/01/28 06:12:48;;;;;;;0.33;0.33;;;;;;;-2.07;80.60;95745.41;5092000;28;20489;-53
2022/01/28 06:15:20;;;;;;;1.03;1.03;;;;;;;-2.24;80.82;95718.88;5091931;28;20467;-53
2022/01/28 06:17:49;;;;;;;1.13;1.13;;;;;;;-1.97;80.24;95757.16;5091294;28;20467;-53
2022/01/28 06:20:19;;;;;;;0.20;0.20;;;;;;;-1.85;78.93;95754.09;5091691;28;20437;-53
2022/01/28 06:22:49;;;;;;;4.10;2.90;;;;;;;-1.73;78.07;95750.84;5091873;28;20842;-53
2022/01/28 06:25:18;;;;;;;6.03;0.87;;;;;;;-1.51;78.13;95764.66;5091650;28;20970;-53
2022/01/28 06:27:46;;;;;;;0.30;0.20;;;;;;;-6.66;76.06;95005.63;5091463;28;20921;-54
2022/01/28 06:30:16;;;;;;;2.03;1.87;;;;;;;-1.13;75.52;95765.25;5090913;28;20436;-54
2022/01/28 06:32:45;;;;;;;0.90;0.90;;;;;;;-1.37;76.92;95683.25;5091680;28;20425;-53
2022/01/28 06:35:14;;;;;;;3.67;3.40;;;;;;;0.46;100.00;95765.09;5091908;28;20433;-54
2022/01/28 06:37:45;;;;;;;1.90;1.90;;;;;;;0.76;76.00;95756.97;5091413;28;20507;-55
2022/01/28 06:40:15;;;;;;;2.43;1.83;;;;;;;1.70;68.48;95753.16;5091545;28;20436;-55
2022/01/28 06:42:44;;;;;;;1.70;1.70;;;;;;;1.35;59.00;95751.78;5091485;28;20436;-55
2022/01/28 06:45:13;;;;;;;0.80;0.80;;;;;;;1.90;67.11;95746.88;5091470;28;20456;-55
2022/01/28 06:47:42;;;;;;;2.50;2.40;;;;;;;1.92;58.49;95751.94;5091040;28;20464;-55
2022/01/28 06:50:11;;;;;;;4.97;1.10;;;;;;;1.76;56.86;95739.28;5090975;28;20504;-55
2022/01/28 06:52:41;;;;;;;0.40;0.40;;;;;;;1.80;55.81;95711.72;5091471;28;20485;-55
2022/01/28 06:55:14;;;;;;;3.10;2.80;;;;;;;1.91;55.56;95740.66;5091557;28;20448;-55
2022/01/28 06:57:43;;;;;;;2.50;2.43;;;;;;;1.82;54.41;95736.66;5091243;28;20472;-55
2022/01/28 07:00:12;;;;;;;1.27;1.27;;;;;;;2.51;56.40;95736.81;5091007;28;20429;-56
2022/01/28 07:02:41;;;;;;;1.90;1.70;;;;;;;2.66;52.11;95727.91;5090695;28;20433;-56
2022/01/28 07:05:11;;;;;;;1.37;1.37;;;;;;;2.62;52.21;95724.09;5091602;28;20433;-54
2022/01/28 07:07:39;;;;;;;8.33;2.70;;;;;;;3.07;51.65;95721.19;5091021;28;20468;-55
2022/01/28 07:10:08;;;;;;;0.93;0.93;;;;;;;3.22;50.30;95697.28;5090948;28;21135;-54
2022/01/28 07:12:38;;;;;;;1.83;1.20;;;;;;;4.00;61.51;95727.19;5091088;28;20497;-55
2022/01/28 07:15:09;;;;;;;4.33;4.10;;;;;;;3.94;52.16;95717.59;5090438;28;20432;-54
2022/01/28 07:17:37;;;;;;;5.93;2.40;;;;;;;4.61;51.99;95697.41;5091285;28;20467;-55
2022/01/28 07:20:08;;;;;;;2.43;2.33;;;;;;;4.74;50.74;95720.84;5091391;28;20432;-54
2022/01/28 07:22:37;;;;;;;2.67;2.50;;;;;;;5.35;46.91;95710.06;5092465;28;20936;-53
2022/01/28 07:25:07;;;;;;;3.27;2.07;;;;;;;5.32;45.25;95716.56;5094971;28;20435;-53
2022/01/28 07:27:35;;;;;;;3.33;3.23;;;;;;;6.36;47.23;95703.38;5094670;28;20493;-53
2022/01/28 07:30:08;;;;;;;3.50;3.30;;;;;;;6.17;45.24;95714.31;5094823;28;20417;-53
2022/01/28 07:32:36;;;;;;;16.70;4.53;;;;;;;6.48;44.90;95713.09;5094624;28;20497;-53
2022/01/28 07:35:08;;;;;;;2.90;2.43;;;;;;;6.53;42.21;95715.81;5094243;28;20497;-53
2022/01/28 07:37:38;;;;;;;3.43;3.23;;;;;;;7.12;43.58;95711.88;5094444;28;20486;-53
2022/01/28 07:40:08;;;;;;;5.30;3.50;;;;;;;6.23;43.52;95714.16;5094493;28;20473;-53
2022/01/28 07:42:38;;;;;;;0.77;0.77;;;;;;;6.04;44.02;95714.56;5094122;28;20444;-53
2022/01/28 07:45:11;;;;;;;2.93;2.83;;;;;;;5.77;44.04;95724.69;5094528;28;20460;-54
2022/01/28 07:47:39;;;;;;;1.60;1.50;;;;;;;5.96;43.52;95707.00;5094204;28;20522;-55
2022/01/28 07:50:10;;;;;;;3.77;2.47;;;;;;;7.04;40.06;95721.78;5093267;28;20468;-51
2022/01/28 07:52:39;;;;;;;4.73;1.43;;;;;;;6.42;39.64;95616.59;5094646;28;20447;-51
2022/01/28 07:55:09;;;;;;;9.63;2.27;;;;;;;6.33;41.13;95724.09;5094241;28;20436;-51
2022/01/28 07:57:38;;;;;;;1.57;1.50;;;;;;;6.10;41.39;95721.50;5094410;28;20468;-51
2022/01/28 08:00:11;;;;;;;1.03;1.03;;;;;;;6.18;41.89;95721.97;5094248;28;20493;-51
2022/01/28 08:02:42;;;;;;;1.47;1.47;;;;;;;7.19;39.95;95717.81;5094136;28;20508;-52
2022/01/28 08:05:11;;;;;;;2.00;1.90;;;;;;;6.69;40.56;95701.91;5094489;28;20854;-52
2022/01/28 08:07:40;;;;;;;1.73;0.90;;;;;;;7.34;39.67;95700.41;5094130;28;20456;-52
2022/01/28 08:10:09;;;;;;;2.33;2.23;;;;;;;7.29;39.71;95702.16;5093760;28;20515;-52
2022/01/28 08:12:48;;;;;;;0.70;0.70;;;;;;;8.06;39.19;95705.72;5094289;28;20453;-54
2022/01/28 08:15:19;;;;;;;1.90;1.73;;;;;;;7.97;38.55;95699.25;5094055;28;20493;-54
2022/01/28 08:17:48;;;;;;;2.30;2.10;;;;;;;7.63;38.87;95672.13;5094061;28;20987;-53
2022/01/28 08:20:17;;;;;;;0.93;0.93;;;;;;;8.28;38.23;95691.50;5094220;28;20490;-55
2022/01/28 08:22:47;;;;;;;1.13;1.13;;;;;;;8.29;37.70;95692.31;5093704;28;20477;-55
2022/01/28 08:25:16;;;;;;;10.93;3.90;;;;;;;7.89;37.86;95681.19;5093641;28;20421;-55
2022/01/28 08:27:45;;;;;;;4.13;2.00;;;;;;;8.74;37.07;95690.19;5093795;28;20452;-55
2022/01/28 08:30:16;;;;;;;1.03;1.00;;;;;;;8.92;36.33;95681.13;5093568;28;20429;-56
2022/01/28 08:32:46;;;;;;;1.73;1.63;;;;;;;9.54;35.51;95686.69;5091521;28;20859;-57
2022/01/28 08:35:15;;;;;;;1.90;1.80;;;;;;;10.67;34.31;95698.47;5091869;28;20452;-58
2022/01/28 08:37:44;;;;;;;2.87;2.73;;;;;;;9.31;35.33;95708.22;5091791;28;21191;-58
2022/01/28 08:40:13;;;;;;;4.40;4.00;;;;;;;10.20;33.98;95691.38;5092611;28;20482;-58
2022/01/28 08:42:42;;;;;;;1.17;0.90;;;;;;;10.71;33.66;95691.59;5093692;28;20812;-58
2022/01/28 08:45:11;;;;;;;0.93;0.93;;;;;;;12.01;32.29;95687.47;5093424;28;20481;-59
2022/01/28 08:47:41;;;;;;;0.67;0.67;;;;;;;11.70;31.81;95688.56;5093101;28;20475;-58
2022/01/28 08:50:12;;;;;;;1.00;0.97;;;;;;;11.98;31.70;95680.03;5093342;28;20421;-58
2022/01/28 08:52:46;;;;;;;5.73;0.70;;;;;;;12.21;31.57;95674.16;5093468;28;20435;-58
2022/01/28 08:55:16;;;;;;;1.00;0.90;;;;;;;10.51;31.06;95529.88;5092943;28;20468;-57
2022/01/28 08:57:45;;;;;;;8.73;2.87;;;;;;;12.38;30.36;95677.28;5092825;28;20964;-56
2022/01/28 09:00:17;;;;;;;2.73;2.47;;;;;;;12.62;30.28;95672.91;5092900;28;20487;-56
2022/01/28 09:02:48;;;;;;;4.43;3.57;;;;;;;13.10;29.84;95674.03;5093215;28;20424;-57
2022/01/28 09:05:19;;;;;;;2.20;2.10;;;;;;;13.40;29.16;95677.56;5093140;28;20428;-56
2022/01/28 09:07:48;;;;;;;7.50;1.83;;;;;;;13.81;27.88;95668.94;5092683;28;20424;-56
2022/01/28 09:10:19;;;;;;;2.80;1.40;;;;;;;14.42;26.57;95658.47;5092746;28;20436;-55
2022/01/28 09:12:49;;;;;;;1.23;1.13;;;;;;;13.22;28.20;95653.19;5093098;28;20485;-56
2022/01/28 09:15:18;;;;;;;1.20;1.10;;;;;;;15.11;25.88;95625.81;5092669;28;20428;-56
2022/01/28 09:17:57;;;;;;;2.20;1.93;;;;;;;14.79;26.46;95647.09;5092611;28;20971;-55
2022/01/28 09:20:31;;;;;;;1.27;0.90;;;;;;;15.34;25.72;95642.03;5092067;28;20437;-55
2022/01/28 09:23:00;;;;;;;2.47;1.33;;;;;;;14.57;26.96;95638.84;5092689;28;20456;-53
2022/01/28 09:25:29;;;;;;;4.20;1.70;;;;;;;13.61;27.20;95634.50;5092801;28;20488;-54
2022/01/28 09:27:58;;;;;;;2.60;2.50;;;;;;;14.02;26.54;95641.03;5092708;28;20500;-54
2022/01/28 09:30:27;;;;;;;1.90;1.80;;;;;;;14.79;25.77;95607.06;5092366;28;20428;-53
2022/01/28 09:32:56;;;;;;;0.80;0.80;;;;;;;14.68;25.64;95626.16;5092742;28;20432;-54
2022/01/28 09:35:25;;;;;;;2.93;2.20;;;;;;;13.66;27.56;95626.44;5092533;28;20954;-53
2022/01/28 09:37:55;;;;;;;3.07;1.20;;;;;;;14.60;27.22;95615.03;5092327;28;20481;-54
2022/01/28 09:40:24;;;;;;;0.87;0.87;;;;;;;16.76;24.31;95615.13;5092187;28;20420;-53
2022/01/28 09:42:52;;;;;;;2.40;1.00;;;;;;;16.05;23.86;95612.25;5092253;28;20874;-54
2022/01/28 09:45:24;;;;;;;2.90;1.03;;;;;;;14.63;25.35;95609.13;5091372;28;20956;-53
2022/01/28 09:47:55;;;;;;;1.20;0.90;;;;;;;14.89;25.23;95604.25;5091548;28;21015;-54
2022/01/28 09:50:24;;;;;;;1.00;1.00;;;;;;;14.22;26.29;95599.25;5091828;28;20963;-53
2022/01/28 09:52:55;;;;;;;0.50;0.50;;;;;;;14.25;26.14;95562.13;5091884;28;20442;-53
2022/01/28 09:55:25;;;;;;;0.60;0.60;;;;;;;14.50;26.82;95595.69;5091956;28;20978;-54
2022/01/28 09:57:56;;;;;;;0.60;0.60;;;;;;;15.32;24.98;95585.44;5091753;28;20456;-53
2022/01/28 10:00:26;;;;;;;19.93;3.03;;;;;;;15.42;24.85;95575.38;5092189;28;20437;-53
2022/01/28 10:02:57;;;;;;;5.40;1.87;;;;;;;15.78;25.03;95568.38;5091807;28;20424;-53
2022/01/28 10:05:28;;;;;;;1.30;1.20;;;;;;;15.02;26.02;95560.03;5091478;28;20436;-55
2022/01/28 10:08:03;;;;;;;1.60;0.80;;;;;;;15.46;25.04;95565.72;5092001;28;20416;-55
2022/01/28 10:10:59;;;;;;;2.60;1.87;;;;;;;17.08;23.21;95561.38;5092096;28;20861;-55
2022/01/28 10:13:33;;;;;;;2.70;2.60;;;;;;;17.13;23.30;95549.72;5091760;28;20976;-54
2022/01/28 10:16:08;;;;;;;0.50;0.40;;;;;;;16.66;23.23;95535.03;5092097;28;20432;-54
2022/01/28 10:18:39;;;;;;;1.43;1.33;;;;;;;16.08;23.06;95526.09;5090997;28;21044;-53
2022/01/28 10:21:17;;;;;;;2.80;1.50;;;;;;;15.11;24.57;95547.59;5091611;28;20475;-55
2022/01/28 10:23:59;;;;;;;0.57;0.57;;;;;;;16.01;23.45;95539.06;5091731;28;20916;-55
2022/01/28 10:26:29;;;;;;;2.10;1.37;;;;;;;15.99;23.22;95542.03;5091601;28;20459;-54
2022/01/28 10:28:58;;;;;;;1.23;0.60;;;;;;;16.65;22.84;95543.34;5091604;28;20494;-54
2022/01/28 10:31:36;;;;;;;1.70;1.50;;;;;;;16.36;22.70;95450.88;5091758;28;20431;-55
2022/01/28 10:34:12;;;;;;;0.70;0.50;;;;;;;17.24;23.25;95526.97;5091760;28;20424;-55
2022/01/28 10:36:43;;;;;;;0.90;0.90;;;;;;;17.32;22.46;95509.38;5091469;28;21042;-55
2022/01/28 10:39:22;;;;;;;0.60;0.60;;;;;;;17.43;21.92;95506.13;5091022;28;20460;-55
2022/01/28 10:41:53;;;;;;;2.50;1.73;;;;;;;17.42;22.01;95499.19;5091410;28;20498;-55
2022/01/28 10:44:22;;;;;;;1.20;0.70;;;;;;;17.21;22.03;95500.78;5091321;28;20428;-54
2022/01/28 10:46:57;;;;;;;2.40;1.33;;;;;;;18.79;20.99;95496.94;5090245;28;20480;-54
2022/01/28 10:49:33;;;;;;;0.70;0.70;;;;;;;19.60;20.72;95496.97;5089229;28;20903;-54
2022/01/28 10:52:08;;;;;;;1.23;1.20;;;;;;;18.29;21.72;95495.75;5089920;28;20423;-54
2022/01/28 10:54:39;;;;;;;0.97;0.97;;;;;;;17.79;21.84;95503.31;5090219;28;20459;-54
2022/01/28 10:57:10;;;;;;;3.87;1.60;;;;;;;15.88;23.43;95496.00;5093091;28;20497;-54
2022/01/28 10:59:41;;;;;;;3.27;2.97;;;;;;;16.08;23.60;95491.31;5094835;28;20571;-55
2022/01/28 11:02:09;;;;;;;0.90;0.90;;;;;;;17.86;21.69;95481.44;5095116;28;20421;-54
2022/01/28 11:04:40;;;;;;;2.30;2.20;;;;;;;17.47;22.51;95480.31;5094752;28;20428;-54
2022/01/28 11:07:11;;;;;;;1.27;0.97;;;;;;;17.50;22.37;95474.34;5093388;28;20969;-54
2022/01/28 11:09:41;;;;;;;1.53;1.43;;;;;;;18.11;21.66;95453.91;5094134;28;20490;-54
2022/01/28 11:12:10;;;;;;;1.90;1.37;;;;;;;18.22;21.49;95449.78;5094066;28;20471;-55
2022/01/28 11:14:39;;;;;;;2.27;2.17;;;;;;;16.84;22.74;95461.81;5093979;28;20458;-55
2022/01/28 11:17:09;;;;;;;0.60;0.60;;;;;;;17.16;22.65;95415.22;5094275;28;20464;-54
2022/01/28 11:19:39;;;;;;;1.67;1.57;;;;;;;17.26;22.05;95431.00;5094579;28;20510;-54
2022/01/28 11:22:22;;;;;;;3.27;3.07;;;;;;;18.05;21.81;95426.44;5094069;28;20457;-54
2022/01/28 11:25:28;;;;;;;2.20;2.10;;;;;;;19.03;21.21;95424.69;5094834;28;20870;-54
2022/01/28 11:27:56;;;;;;;0.93;0.93;;;;;;;18.16;23.75;95430.41;5094413;28;20432;-63
2022/01/28 11:30:28;;;;;;;1.77;1.67;;;;;;;16.89;22.22;95431.44;5094470;28;20444;-64
2022/01/28 11:33:03;;;;;;;1.57;1.47;;;;;;;17.98;21.92;95422.63;5094783;28;20486;-64
2022/01/28 11:35:37;;;;;;;6.03;2.40;;;;;;;18.80;22.72;95426.00;5094618;28;20416;-64
2022/01/28 11:38:50;;;;;;;0.97;0.87;;;;;;;19.34;21.48;95412.91;5094414;28;20452;-64
2022/01/28 11:41:25;;;;;;;4.80;0.60;;;;;;;18.98;20.82;95419.47;5069868;28;20447;-62
2022/01/28 11:43:55;;;;;;;1.63;1.53;;;;;;;20.22;28.23;95419.13;5094566;28;20469;-62
2022/01/28 11:46:27;;;;;;;2.13;2.03;;;;;;;19.81;20.38;95379.50;5093983;28;20554;-62
2022/01/28 11:49:20;;;;;;;1.47;1.37;;;;;;;18.94;20.76;95402.44;5094277;28;20917;-62
2022/01/28 11:51:49;;;;;;;1.93;1.73;;;;;;;18.45;21.58;95399.44;5094193;28;20436;-63
2022/01/28 11:54:22;;;;;;;1.60;0.93;;;;;;;19.14;20.67;95384.03;5093990;28;20432;-62
2022/01/28 11:57:17;;;;;;;1.00;0.97;;;;;;;19.28;20.60;95382.72;5094327;28;20486;-61
2022/01/28 11:59:49;;;;;;;1.80;1.70;;;;;;;18.59;20.89;95373.28;5093991;28;20510;-61
2022/01/28 12:02:21;;;;;;;2.20;1.47;;;;;;;18.47;21.02;95376.59;5093901;28;20460;-61
2022/01/28 12:04:51;;;;;;;1.73;1.63;;;;;;;19.60;20.57;95368.72;5093958;28;20515;-61
2022/01/28 12:07:23;;;;;;;1.13;0.70;;;;;;;19.57;19.96;95366.66;5093649;28;20436;-61
2022/01/28 12:09:53;;;;;;;7.30;4.77;;;;;;;19.90;19.99;95372.19;5093330;28;20416;-61
2022/01/28 12:12:55;;;;;;;0.80;0.80;;;;;;;19.70;20.00;95356.00;5093868;28;20485;-61
2022/01/28 12:15:25;;;;;;;0.50;0.43;;;;;;;18.40;20.35;95355.56;5094027;28;20515;-62
2022/01/28 12:18:07;;;;;;;0.70;0.60;;;;;;;18.67;20.06;95351.78;5093743;28;20952;-62
2022/01/28 12:20:45;;;;;;;0.60;0.60;;;;;;;19.44;21.63;95354.25;5093581;28;20488;-62
2022/01/28 12:23:39;;;;;;;1.47;0.50;;;;;;;19.37;20.06;95340.53;5093715;28;20523;-62
2022/01/28 12:26:08;;;;;;;1.00;0.90;;;;;;;20.00;20.34;95341.41;5093879;28;20804;-61
2022/01/28 12:29:03;;;;;;;0.97;0.70;;;;;;;20.63;19.53;95334.88;5093628;28;20424;-61
2022/01/28 12:31:56;;;;;;;0.60;0.50;;;;;;;18.83;21.04;95298.34;5093397;28;20439;-61
2022/01/28 12:34:25;;;;;;;1.13;1.03;;;;;;;18.34;21.99;95342.66;5093745;28;20447;-61
2022/01/28 12:36:56;;;;;;;0.63;0.60;;;;;;;18.87;21.31;95340.34;5093370;28;20971;-62
2022/01/28 12:39:36;;;;;;;0.87;0.70;;;;;;;19.10;21.19;95335.53;5093258;28;20515;-61
2022/01/28 12:42:09;;;;;;;1.13;0.73;;;;;;;20.30;20.40;95328.69;5093324;28;20442;-61
2022/01/28 12:44:39;;;;;;;1.47;1.40;;;;;;;19.83;20.78;95333.47;5093305;28;21011;-61
2022/01/28 12:47:10;;;;;;;1.27;1.17;;;;;;;20.57;20.09;95322.72;5093068;28;20537;-61
2022/01/28 12:49:39;;;;;;;3.20;0.77;;;;;;;18.72;21.25;95322.06;5093290;28;20432;-60
2022/01/28 12:52:09;;;;;;;0.60;0.60;;;;;;;17.97;21.63;95262.81;5093471;28;20420;-60
2022/01/28 12:54:42;;;;;;;0.80;0.80;;;;;;;19.13;21.04;95320.66;5093367;28;20866;-60
2022/01/28 12:57:12;;;;;;;0.50;0.50;;;;;;;19.97;20.87;95307.06;5093330;28;20451;-61
2022/01/28 12:59:45;;;;;;;0.70;0.70;;;;;;;19.63;20.83;95311.56;5092995;28;20494;-60
2022/01/28 13:02:15;;;;;;;1.53;1.43;;;;;;;19.45;20.96;95314.72;5092982;28;20429;-60
2022/01/28 13:04:52;;;;;;;3.67;1.20;;;;;;;20.55;21.50;95306.91;5093076;28;20439;-61
2022/01/28 13:10:08;;;;;;;0.60;0.50;;;;;;;20.72;19.87;95292.50;5092617;28;20897;-58
2022/01/28 13:12:36;;;;;;;4.47;0.87;;;;;;;20.37;20.70;95294.72;5092732;28;20433;-59